Norris Observed Data For Previous 48 Hours

Caption
Day and Hour Reservoir Elevation (behind dam)* Tailwater Elevation (below dam)* Average Hourly Discharge*
4/17/2018 2 AM EDT 1,014.45 821.57 20
4/17/2018 3 AM EDT 1,014.46 821.48 20
4/17/2018 4 AM EDT 1,014.50 821.38 20
4/17/2018 5 AM EDT 1,014.51 821.29 20
4/17/2018 6 AM EDT 1,014.55 821.21 20
4/17/2018 7 AM EDT 1,014.57 821.13 20
4/17/2018 8 AM EDT 1,014.58 821.06 20
4/17/2018 9 AM EDT 1,014.59 821.95 82
4/17/2018 10 AM EDT 1,014.64 823.40 3,193
4/17/2018 11 AM EDT 1,014.66 822.14 20
4/17/2018 12 PM EDT 1,014.69 821.83 20
4/17/2018 1 PM EDT 1,014.74 821.69 20
4/17/2018 2 PM EDT 1,014.76 821.56 20
4/17/2018 3 PM EDT 1,014.79 821.49 34
4/17/2018 4 PM EDT 1,014.83 821.40 20
4/17/2018 5 PM EDT 1,014.87 821.31 20
4/17/2018 6 PM EDT 1,014.92 821.22 20
4/17/2018 7 PM EDT 1,014.95 821.15 20
4/17/2018 8 PM EDT 1,015.00 821.07 20
4/17/2018 9 PM EDT 1,015.01 822.02 90
4/17/2018 10 PM EDT 1,015.06 823.46 3,221
4/17/2018 11 PM EDT 1,015.09 822.14 20
4/18/2018 12 AM EDT 1,015.12 821.82 20
4/18/2018 1 AM EDT 1,015.15 821.67 20
4/18/2018 2 AM EDT 1,015.18 821.57 20
4/18/2018 3 AM EDT 1,015.23 821.47 20
4/18/2018 4 AM EDT 1,015.27 821.37 20
4/18/2018 5 AM EDT 1,015.30 821.29 20
4/18/2018 6 AM EDT 1,015.33 821.20 20
4/18/2018 7 AM EDT 1,015.36 821.12 20
4/18/2018 8 AM EDT 1,015.38 821.06 20
4/18/2018 9 AM EDT 1,015.40 821.97 85
4/18/2018 10 AM EDT 1,015.45 823.50 3,187
4/18/2018 11 AM EDT 1,015.46 822.16 20
4/18/2018 12 PM EDT 1,015.49 821.81 20
4/18/2018 1 PM EDT 1,015.55 821.67 20
4/18/2018 2 PM EDT 1,015.55 821.56 20
4/18/2018 3 PM EDT 1,015.57 821.46 20
4/18/2018 4 PM EDT 1,015.60 821.38 20
4/18/2018 5 PM EDT 1,015.61 821.26 20
4/18/2018 6 PM EDT 1,015.65 821.21 20
4/18/2018 7 PM EDT 1,015.66 821.13 20
4/18/2018 8 PM EDT 1,015.68 821.05 20
4/18/2018 9 PM EDT 1,015.69 822.05 94
4/18/2018 10 PM EDT 1,015.72 823.51 3,167
4/18/2018 11 PM EDT 1,015.75 822.14 20
4/19/2018 12 AM EDT 1,015.76 821.82 20
4/19/2018 1 AM EDT 1,015.80 821.67 20
4/19/2018 2 AM EDT 1,015.81 821.57 20
4/19/2018 3 AM EDT 1,015.85 821.45 20
4/19/2018 4 AM EDT 1,015.87 821.35 20
4/19/2018 5 AM EDT 1,015.88 821.26 20
4/19/2018 6 AM EDT 1,015.90 821.17 20
4/19/2018 7 AM EDT 1,015.93 821.10 20

Elevations are in feet above sea level. Discharges are in cubic feet per second and are reported at the end of the hour.